createdAt,value
2022-09-29T00:01:07.393Z,92618.81
2022-09-29T00:03:36.996Z,92618.81
2022-09-29T00:06:04.623Z,92612.91
2022-09-29T00:08:32.861Z,92610.19
2022-09-29T00:11:00.402Z,92603.97
2022-09-29T00:13:27.940Z,92607.50
2022-09-29T00:15:57.105Z,92603.19
2022-09-29T00:18:24.637Z,92603.19
2022-09-29T00:21:00.720Z,92600.78
2022-09-29T00:23:28.545Z,92592.38
2022-09-29T00:26:03.669Z,92595.34
2022-09-29T00:28:31.286Z,92584.84
2022-09-29T00:30:59.617Z,92582.94
2022-09-29T00:33:27.202Z,92586.75
2022-09-29T00:36:00.436Z,92596.78
2022-09-29T00:38:28.128Z,92595.97
2022-09-29T00:40:55.883Z,92599.75
2022-09-29T00:43:24.284Z,92599.75
2022-09-29T00:45:52.280Z,92597.88
2022-09-29T00:48:21.931Z,92601.66
2022-09-29T00:50:50.784Z,92597.34
2022-09-29T00:53:21.770Z,92593.84
2022-09-29T00:55:50.714Z,92588.44
2022-09-29T00:58:22.754Z,92591.16
2022-09-29T01:00:50.337Z,92589.56
2022-09-29T01:03:20.100Z,92586.84
2022-09-29T01:05:49.024Z,92587.13
2022-09-29T01:08:20.147Z,92578.22
2022-09-29T01:10:47.681Z,92580.94
2022-09-29T01:13:15.286Z,92588.22
2022-09-29T01:15:42.816Z,92587.44
2022-09-29T01:18:10.353Z,92583.94
2022-09-29T01:20:40.522Z,92585.81
2022-09-29T01:23:35.747Z,92581.50
2022-09-29T01:26:15.213Z,92574.22
2022-09-29T01:28:59.694Z,92572.59
2022-09-29T01:31:30.996Z,92576.41
2022-09-29T01:34:01.909Z,92579.91
2022-09-29T01:36:33.298Z,92579.91
2022-09-29T01:39:08.234Z,92585.31
2022-09-29T01:41:37.744Z,92576.41
2022-09-29T01:44:07.269Z,92579.41
2022-09-29T01:46:37.938Z,92580.22
2022-09-29T01:49:05.500Z,92579.41
2022-09-29T01:51:37.179Z,92582.91
2022-09-29T01:54:05.873Z,92575.09
2022-09-29T01:56:36.893Z,92574.59
2022-09-29T01:59:06.415Z,92578.09
2022-09-29T02:01:37.970Z,92582.69
2022-09-29T02:04:06.937Z,92581.88
2022-09-29T02:06:37.395Z,92575.69
2022-09-29T02:09:05.996Z,92572.16
2022-09-29T02:11:33.546Z,92575.69
2022-09-29T02:14:03.025Z,92577.56
2022-09-29T02:16:32.647Z,92577.56
2022-09-29T02:19:03.336Z,92570.53
2022-09-29T02:21:30.860Z,92576.75
2022-09-29T02:23:58.399Z,92574.88
2022-09-29T02:26:26.411Z,92568.94
2022-09-29T02:28:53.936Z,92567.84
2022-09-29T02:31:21.523Z,92561.63
2022-09-29T02:33:49.088Z,92565.44
2022-09-29T02:36:31.034Z,92573.56
2022-09-29T02:39:01.837Z,92580.06
2022-09-29T02:41:35.429Z,92579.25
2022-09-29T02:44:30.517Z,92567.66
2022-09-29T02:47:07.345Z,92580.06
2022-09-29T02:49:42.454Z,92578.47
2022-09-29T02:52:17.616Z,92584.66
2022-09-29T02:54:50.793Z,92573.34
2022-09-29T02:57:20.891Z,92563.31
2022-09-29T02:59:52.808Z,92553.59
2022-09-29T03:02:24.680Z,92562.53
2022-09-29T03:04:52.304Z,92559.81
2022-09-29T03:07:21.184Z,92559.81
2022-09-29T03:09:48.727Z,92557.41
2022-09-29T03:12:17.464Z,92565.50
2022-09-29T03:14:45.061Z,92559.31
2022-09-29T03:17:12.880Z,92553.09
2022-09-29T03:19:40.393Z,92553.09
2022-09-29T03:22:07.940Z,92555.81
2022-09-29T03:24:37.069Z,92543.38
2022-09-29T03:27:04.818Z,92552.31
2022-09-29T03:29:32.333Z,92548.78
2022-09-29T03:31:59.868Z,92552.59
2022-09-29T03:34:27.419Z,92546.41
2022-09-29T03:36:54.997Z,92545.59
2022-09-29T03:39:22.531Z,92549.88
2022-09-29T03:41:51.533Z,92538.28
2022-09-29T03:44:19.107Z,92537.47
2022-09-29T03:46:47.161Z,92531.25
2022-09-29T03:49:15.090Z,92531.25
2022-09-29T03:51:42.785Z,92539.38
2022-09-29T03:54:10.326Z,92549.38
2022-09-29T03:56:37.930Z,92554.78
2022-09-29T03:59:09.110Z,92550.50
2022-09-29T04:01:38.082Z,92555.91
2022-09-29T04:04:06.665Z,92552.38
2022-09-29T04:06:34.193Z,92555.91
2022-09-29T04:09:01.730Z,92554.28
2022-09-29T04:11:29.268Z,92557.00
2022-09-29T04:13:56.815Z,92559.69
2022-09-29T04:16:25.783Z,92569.69
2022-09-29T04:18:53.357Z,92567.00
2022-09-29T04:21:20.873Z,92570.78
2022-09-29T04:23:48.490Z,92567.31
2022-09-29T04:26:16.096Z,92571.91
2022-09-29T04:28:43.618Z,92569.47
2022-09-29T04:31:11.220Z,92562.19
2022-09-29T04:33:41.405Z,92563.28
2022-09-29T04:36:09.100Z,92569.19
2022-09-29T04:38:36.648Z,92557.59
2022-09-29T04:41:04.258Z,92555.97
2022-09-29T04:43:31.881Z,92557.88
2022-09-29T04:46:04.255Z,92566.00
2022-09-29T04:48:51.950Z,92574.09
2022-09-29T04:51:19.538Z,92567.88
2022-09-29T04:53:47.089Z,92565.16
2022-09-29T04:56:14.648Z,92554.34
2022-09-29T04:58:42.176Z,92550.06
2022-09-29T05:01:10.529Z,92542.75
2022-09-29T05:03:38.155Z,92544.66
2022-09-29T05:06:08.594Z,92542.75
2022-09-29T05:08:36.154Z,92537.34
2022-09-29T05:11:05.330Z,92533.84
2022-09-29T05:13:32.907Z,92530.34
2022-09-29T05:16:01.063Z,92531.44
2022-09-29T05:18:28.784Z,92527.94
2022-09-29T05:21:22.849Z,92528.75
2022-09-29T05:23:45.249Z,92529.84
2022-09-29T05:26:13.124Z,92537.94
2022-09-29T05:28:43.671Z,92529.84
2022-09-29T05:31:11.249Z,92537.13
2022-09-29T05:33:38.957Z,92531.72
2022-09-29T05:36:07.174Z,92534.44
2022-09-29T05:38:35.200Z,92533.66
2022-09-29T05:41:06.316Z,92530.94
2022-09-29T05:43:33.934Z,92535.53
2022-09-29T05:46:02.255Z,92537.41
2022-09-29T05:48:30.483Z,92539.34
2022-09-29T05:50:58.046Z,92533.94
2022-09-29T05:53:25.818Z,92538.25
2022-09-29T05:55:53.414Z,92533.94
2022-09-29T05:58:22.344Z,92533.94
2022-09-29T06:00:49.984Z,92531.50
2022-09-29T06:03:17.568Z,92522.63
2022-09-29T06:05:45.077Z,92528.03
2022-09-29T06:08:12.618Z,92535.31
2022-09-29T06:10:40.137Z,92528.81
2022-09-29T06:13:08.741Z,92538.00
2022-09-29T06:15:38.044Z,92538.84
2022-09-29T06:18:05.660Z,92546.13
2022-09-29T06:20:38.169Z,92541.53
2022-09-29T06:23:05.704Z,92546.13
2022-09-29T06:25:33.345Z,92545.34
2022-09-29T06:28:01.101Z,92552.63
2022-09-29T06:30:28.605Z,92548.03
2022-09-29T06:32:57.749Z,92544.53
2022-09-29T06:35:42.646Z,92543.72
2022-09-29T06:38:10.195Z,92538.31
2022-09-29T06:40:37.785Z,92550.25
2022-09-29T06:43:05.656Z,92542.91
2022-09-29T06:45:33.201Z,92544.03
2022-09-29T06:48:03.425Z,92542.91
2022-09-29T06:50:30.997Z,92547.53
2022-09-29T06:53:03.835Z,92542.91
2022-09-29T06:55:31.793Z,92544.03
2022-09-29T06:58:03.745Z,92551.31
2022-09-29T07:00:32.811Z,92544.03
2022-09-29T07:03:01.712Z,92545.91
2022-09-29T07:05:29.328Z,92551.31
2022-09-29T07:08:00.908Z,92551.31
2022-09-29T07:10:28.912Z,92560.22
2022-09-29T07:12:56.500Z,92554.84
2022-09-29T07:15:31.322Z,92548.59
2022-09-29T07:17:59.197Z,92544.31
2022-09-29T07:20:28.205Z,92549.72
2022-09-29T07:22:55.764Z,92547.00
2022-09-29T07:25:50.013Z,92544.31
2022-09-29T07:28:10.949Z,92548.09
2022-09-29T07:30:40.891Z,92553.50
2022-09-29T07:33:08.708Z,92557.81
2022-09-29T07:35:40.149Z,92556.22
2022-09-29T07:38:07.848Z,92570.81
2022-09-29T07:40:35.451Z,92567.34
2022-09-29T07:43:03.369Z,92564.31
2022-09-29T07:45:30.969Z,92570.81
2022-09-29T07:47:58.565Z,92576.22
2022-09-29T07:50:26.102Z,92574.63
2022-09-29T07:52:54.985Z,92571.91
2022-09-29T07:55:41.058Z,92574.63
2022-09-29T07:58:28.928Z,92573.84
2022-09-29T08:00:57.118Z,92574.63
2022-09-29T08:03:26.249Z,92576.53
2022-09-29T08:05:53.888Z,92576.53
2022-09-29T08:08:22.771Z,92571.91
2022-09-29T08:10:53.697Z,92573.03
2022-09-29T08:13:21.620Z,92573.03
2022-09-29T08:15:49.142Z,92574.63
2022-09-29T08:18:16.689Z,92573.84
2022-09-29T08:20:44.239Z,92571.13
2022-09-29T08:23:11.781Z,92580.03
2022-09-29T08:25:42.915Z,92574.63
2022-09-29T08:28:18.826Z,92579.25
2022-09-29T08:30:51.336Z,92584.66
2022-09-29T08:33:18.884Z,92586.53
2022-09-29T08:35:46.417Z,92597.34
2022-09-29T08:38:13.966Z,92591.94
2022-09-29T08:40:42.905Z,92603.56
2022-09-29T08:43:12.119Z,92607.38
2022-09-29T08:45:55.472Z,92606.53
2022-09-29T08:48:27.695Z,92609.25
2022-09-29T08:50:57.321Z,92607.38
2022-09-29T08:53:29.090Z,92603.84
2022-09-29T08:56:01.229Z,92614.66
2022-09-29T08:58:28.816Z,92612.78
2022-09-29T09:01:03.264Z,92613.84
2022-09-29T09:03:57.373Z,92622.75
2022-09-29T09:06:28.921Z,92625.47
2022-09-29T09:09:29.357Z,92625.47
2022-09-29T09:12:16.928Z,92627.34
2022-09-29T09:14:52.987Z,92630.06
2022-09-29T09:17:27.600Z,92635.78
2022-09-29T09:20:18.972Z,92641.16
2022-09-29T09:22:51.182Z,92638.47
2022-09-29T09:25:22.157Z,92643.06
2022-09-29T09:27:55.792Z,92651.97
2022-09-29T09:30:23.622Z,92643.88
2022-09-29T09:32:54.063Z,92650.06
2022-09-29T09:35:27.256Z,92653.59
2022-09-29T09:37:54.922Z,92659.28
2022-09-29T09:40:24.579Z,92666.59
2022-09-29T09:42:55.937Z,92654.19
2022-09-29T09:45:27.100Z,92654.97
2022-09-29T09:47:56.066Z,92657.66
2022-09-29T09:50:25.134Z,92646.84
2022-09-29T09:52:53.239Z,92651.47
2022-09-29T09:55:21.806Z,92650.66
2022-09-29T09:58:22.812Z,92651.47
2022-09-29T10:00:52.276Z,92656.88
2022-09-29T10:03:19.919Z,92651.47
2022-09-29T10:05:48.361Z,92651.47
2022-09-29T10:08:18.917Z,92653.34
2022-09-29T10:10:57.428Z,92650.66
2022-09-29T10:13:28.357Z,92656.06
2022-09-29T10:15:57.874Z,92656.38
2022-09-29T10:18:28.100Z,92664.16
2022-09-29T10:20:55.682Z,92658.75
2022-09-29T10:23:30.942Z,92657.16
2022-09-29T10:26:00.286Z,92660.69
2022-09-29T10:28:31.148Z,92660.69
2022-09-29T10:30:58.786Z,92667.19
2022-09-29T10:33:26.867Z,92659.06
2022-09-29T10:36:05.742Z,92672.59
2022-09-29T10:38:33.276Z,92678.00
2022-09-29T10:41:04.388Z,92676.06
2022-09-29T10:43:36.908Z,92669.88
2022-09-29T10:46:04.818Z,92675.28
2022-09-29T10:48:32.415Z,92671.75
2022-09-29T10:53:35.517Z,92685.28
2022-09-29T10:56:06.513Z,92681.75
2022-09-29T10:58:52.679Z,92680.97
2022-09-29T11:01:21.665Z,92687.16
2022-09-29T11:03:50.289Z,92687.16
2022-09-29T11:06:17.844Z,92689.88
2022-09-29T11:08:59.122Z,92685.28
2022-09-29T11:11:28.032Z,92680.16
2022-09-29T11:13:57.113Z,92691.78
2022-09-29T11:16:32.182Z,92688.25
2022-09-29T11:19:05.326Z,92682.84
2022-09-29T11:22:01.484Z,92674.75
2022-09-29T11:24:36.180Z,92687.16
2022-09-29T11:27:07.398Z,92685.56
2022-09-29T11:29:39.425Z,92692.88
2022-09-29T11:32:14.901Z,92690.16
2022-09-29T11:34:48.758Z,92688.25
2022-09-29T11:37:22.687Z,92692.88
2022-09-29T11:39:53.659Z,92690.44
2022-09-29T11:42:39.321Z,92692.06
2022-09-29T11:45:15.043Z,92692.06
2022-09-29T11:48:00.543Z,92694.75
2022-09-29T11:50:38.172Z,92693.97
2022-09-29T11:53:12.284Z,92695.84
2022-09-29T11:55:45.283Z,92695.84
2022-09-29T11:58:21.506Z,92695.06
2022-09-29T12:01:01.187Z,92695.84
2022-09-29T12:03:31.777Z,92695.84
2022-09-29T12:06:08.966Z,92693.97
2022-09-29T12:08:44.816Z,92701.25
2022-09-29T12:11:37.645Z,92695.84
2022-09-29T12:14:03.044Z,92703.16
2022-09-29T12:16:33.466Z,92691.56
2022-09-29T12:19:02.944Z,92691.56
2022-09-29T12:21:33.090Z,92692.38
2022-09-29T12:24:00.986Z,92686.16
2022-09-29T12:26:28.551Z,92691.56
2022-09-29T12:28:59.327Z,92692.38
2022-09-29T12:31:28.673Z,92688.84
2022-09-29T12:33:58.914Z,92688.84
2022-09-29T12:36:50.178Z,92689.94
2022-09-29T12:39:24.831Z,92688.84
2022-09-29T12:41:54.196Z,92689.94
2022-09-29T12:44:25.988Z,92689.94
2022-09-29T12:46:54.340Z,92702.66
2022-09-29T12:49:24.717Z,92699.16
2022-09-29T12:51:52.579Z,92705.38
2022-09-29T12:54:22.254Z,92703.44
2022-09-29T12:56:51.893Z,92698.31
2022-09-29T12:59:30.540Z,92700.25
2022-09-29T13:01:58.142Z,92699.97
2022-09-29T13:04:56.242Z,92701.03
2022-09-29T13:07:59.224Z,92706.44
2022-09-29T13:10:42.572Z,92702.94
2022-09-29T13:13:37.481Z,92702.13
2022-09-29T13:16:10.257Z,92707.53
2022-09-29T13:18:59.907Z,92703.22
2022-09-29T13:21:39.740Z,92701.34
2022-09-29T13:24:19.465Z,92714.03
2022-09-29T13:27:01.806Z,92703.22
2022-09-29T13:29:29.341Z,92706.75
2022-09-29T13:31:56.939Z,92712.16
2022-09-29T13:34:30.217Z,92712.16
2022-09-29T13:37:08.049Z,92714.03
2022-09-29T13:39:35.568Z,92705.13
2022-09-29T13:42:41.668Z,92715.94
2022-09-29T13:45:41.100Z,92702.44
2022-09-29T13:48:37.820Z,92710.53
2022-09-29T13:51:24.705Z,92705.13
2022-09-29T13:56:48.015Z,92711.31
2022-09-29T13:59:16.465Z,92717.81
2022-09-29T14:01:44.590Z,92718.66
2022-09-29T14:04:45.158Z,92723.22
2022-09-29T14:07:13.555Z,92725.94
2022-09-29T14:09:42.179Z,92728.63
2022-09-29T14:12:18.061Z,92733.25
2022-09-29T14:14:46.721Z,92728.63
2022-09-29T14:17:15.406Z,92735.94
2022-09-29T14:19:47.086Z,92729.72
2022-09-29T14:22:52.830Z,92737.03
2022-09-29T14:25:53.342Z,92742.44
2022-09-29T14:28:24.930Z,92749.72
2022-09-29T14:30:54.947Z,92751.34
2022-09-29T14:33:23.991Z,92757.56
2022-09-29T14:35:56.228Z,92753.25
2022-09-29T14:38:25.358Z,92762.97
2022-09-29T14:40:56.688Z,92754.34
2022-09-29T14:43:27.754Z,92750.81
2022-09-29T14:46:37.335Z,92750.00
2022-09-29T14:49:43.838Z,92758.66
2022-09-29T14:52:17.202Z,92757.84
2022-09-29T14:54:48.014Z,92752.44
2022-09-29T14:57:23.825Z,92759.75
2022-09-29T15:00:01.962Z,92763.50
2022-09-29T15:02:30.653Z,92764.34
2022-09-29T15:04:58.301Z,92765.16
2022-09-29T15:07:46.367Z,92762.44
2022-09-29T15:10:25.417Z,92758.13
2022-09-29T15:12:53.321Z,92760.81
2022-09-29T15:15:38.119Z,92756.50
2022-09-29T15:18:12.641Z,92758.13
2022-09-29T15:20:52.327Z,92756.50
2022-09-29T15:23:46.729Z,92761.13
2022-09-29T15:26:14.492Z,92767.31
2022-09-29T15:28:42.355Z,92770.00
2022-09-29T15:31:12.698Z,92764.63
2022-09-29T15:33:41.055Z,92772.72
2022-09-29T15:36:09.434Z,92771.94
2022-09-29T15:38:38.359Z,92770.00
2022-09-29T15:41:14.785Z,92772.72
2022-09-29T15:43:44.217Z,92773.03
2022-09-29T15:46:19.225Z,92773.81
2022-09-29T15:49:11.001Z,92783.53
2022-09-29T15:51:38.573Z,92791.94
2022-09-29T15:54:10.261Z,92792.72
2022-09-29T15:56:58.307Z,92788.41
2022-09-29T15:59:50.040Z,92784.91
2022-09-29T16:02:29.510Z,92790.31
2022-09-29T16:04:57.751Z,92793.81
2022-09-29T16:07:29.058Z,92793.81
2022-09-29T16:09:59.982Z,92801.91
2022-09-29T16:12:27.885Z,92803.84
2022-09-29T16:14:55.575Z,92805.72
2022-09-29T16:17:23.130Z,92802.22
2022-09-29T16:19:52.088Z,92809.25
2022-09-29T16:22:22.181Z,92811.13
2022-09-29T16:24:53.979Z,92810.34
2022-09-29T16:27:39.865Z,92818.44
2022-09-29T16:30:21.525Z,92821.94
2022-09-29T16:32:57.217Z,92828.41
2022-09-29T16:35:43.360Z,92829.25
2022-09-29T16:38:15.906Z,92834.63
2022-09-29T16:40:43.427Z,92833.81
2022-09-29T16:43:19.609Z,92839.22
2022-09-29T16:45:49.912Z,92846.53
2022-09-29T16:48:17.614Z,92845.72
2022-09-29T16:50:48.599Z,92845.72
2022-09-29T16:53:25.139Z,92850.31
2022-09-29T16:55:59.685Z,92845.72
2022-09-29T16:58:27.836Z,92850.31
2022-09-29T17:00:55.420Z,92847.59
2022-09-29T17:03:23.009Z,92847.59
2022-09-29T17:05:52.206Z,92846.81
2022-09-29T17:08:22.714Z,92843.28
2022-09-29T17:10:50.828Z,92849.50
2022-09-29T17:13:18.417Z,92856.81
2022-09-29T17:15:46.855Z,92849.50
2022-09-29T17:18:14.601Z,92852.22
2022-09-29T17:20:42.174Z,92858.72
2022-09-29T17:23:11.568Z,92859.50
2022-09-29T17:25:40.149Z,92872.22
2022-09-29T17:28:15.007Z,92872.22
2022-09-29T17:30:43.801Z,92880.31
2022-09-29T17:33:12.012Z,92879.50
2022-09-29T17:35:40.412Z,92891.13
2022-09-29T17:38:09.340Z,92891.13
2022-09-29T17:40:40.101Z,92896.53
2022-09-29T17:43:07.668Z,92895.72
2022-09-29T17:45:36.242Z,92894.91
2022-09-29T17:48:04.844Z,92889.53
2022-09-29T17:50:36.339Z,92902.22
2022-09-29T17:53:05.078Z,92904.91
2022-09-29T17:55:32.789Z,92894.91
2022-09-29T17:58:01.787Z,92896.81
2022-09-29T18:00:31.405Z,92899.50
2022-09-29T18:02:59.310Z,92896.00
2022-09-29T18:05:27.741Z,92898.72
2022-09-29T18:07:56.349Z,92889.78
2022-09-29T18:10:26.725Z,92889.00
2022-09-29T18:12:54.382Z,92888.19
2022-09-29T18:15:23.405Z,92890.59
2022-09-29T18:17:50.957Z,92891.69
2022-09-29T18:20:19.623Z,92892.50
2022-09-29T18:22:48.122Z,92891.69
2022-09-29T18:25:17.609Z,92890.09
2022-09-29T18:27:45.733Z,92900.59
2022-09-29T18:30:19.580Z,92890.09
2022-09-29T18:32:49.349Z,92889.28
2022-09-29T18:35:17.974Z,92900.91
2022-09-29T18:37:45.520Z,92900.91
2022-09-29T18:40:13.035Z,92901.69
2022-09-29T18:42:42.194Z,92900.91
2022-09-29T18:45:13.204Z,92900.09
2022-09-29T18:47:42.196Z,92893.59
2022-09-29T18:50:15.398Z,92904.66
2022-09-29T18:52:43.034Z,92900.91
2022-09-29T18:55:11.097Z,92903.59
2022-09-29T18:57:38.709Z,92903.06
2022-09-29T19:00:10.463Z,92910.06
2022-09-29T19:02:38.264Z,92917.38
2022-09-29T19:05:07.617Z,92917.66
2022-09-29T19:07:36.498Z,92914.94
2022-09-29T19:10:04.212Z,92919.56
2022-09-29T19:12:32.097Z,92923.06
2022-09-29T19:15:00.074Z,92919.25
2022-09-29T19:17:27.977Z,92928.19
2022-09-29T19:19:55.602Z,92924.66
2022-09-29T19:22:24.466Z,92923.06
2022-09-29T19:24:53.976Z,92924.66
2022-09-29T19:27:21.717Z,92921.97
2022-09-29T19:29:53.830Z,92923.56
2022-09-29T19:32:21.534Z,92920.88
2022-09-29T19:34:49.076Z,92935.47
2022-09-29T19:37:16.629Z,92930.06
2022-09-29T19:39:46.828Z,92932.75
2022-09-29T19:42:15.878Z,92936.28
2022-09-29T19:44:43.426Z,92937.38
2022-09-29T19:47:11.634Z,92941.69
2022-09-29T19:49:39.157Z,92943.56
2022-09-29T19:52:05.784Z,92943.56
2022-09-29T19:54:34.262Z,92950.06
2022-09-29T19:57:02.891Z,92950.06
2022-09-29T19:59:32.972Z,92950.88
2022-09-29T20:02:00.711Z,92958.16
2022-09-29T20:04:30.898Z,92956.28
2022-09-29T20:06:58.487Z,92959.25
2022-09-29T20:09:26.462Z,92971.66
2022-09-29T20:11:54.369Z,92969.78
2022-09-29T20:14:23.710Z,92975.47
2022-09-29T20:16:53.425Z,92981.69
2022-09-29T20:19:22.149Z,92975.47
2022-09-29T20:21:52.038Z,92981.69
2022-09-29T20:24:21.055Z,92993.28
2022-09-29T20:26:48.889Z,92992.50
2022-09-29T20:29:18.355Z,92988.97
2022-09-29T20:31:46.059Z,93003.28
2022-09-29T20:34:15.445Z,92999.78
2022-09-29T20:36:43.092Z,93014.09
2022-09-29T20:39:10.938Z,93009.78
2022-09-29T20:41:38.556Z,93011.66
2022-09-29T20:44:06.279Z,93013.28
2022-09-29T20:46:33.952Z,93018.69
2022-09-29T20:49:03.006Z,93014.38
2022-09-29T20:51:36.019Z,93017.06
2022-09-29T20:54:05.529Z,93019.78
2022-09-29T20:56:40.104Z,93013.56
2022-09-29T20:59:07.689Z,93017.06
2022-09-29T21:01:35.317Z,93021.69
2022-09-29T21:04:05.324Z,93028.97
2022-09-29T21:06:35.105Z,93027.06
2022-09-29T21:09:03.025Z,93021.69
2022-09-29T21:11:37.812Z,93027.88
2022-09-29T21:14:08.695Z,93035.19
2022-09-29T21:16:36.505Z,93039.75
2022-09-29T21:19:04.195Z,93043.28
2022-09-29T21:21:31.745Z,93040.59
2022-09-29T21:24:03.289Z,93044.38
2022-09-29T21:26:31.170Z,93041.66
2022-09-29T21:28:59.434Z,93044.38
2022-09-29T21:31:27.676Z,93041.66
2022-09-29T21:33:57.129Z,93052.47
2022-09-29T21:36:25.261Z,93044.38
2022-09-29T21:38:53.067Z,93044.38
2022-09-29T21:41:22.926Z,93042.72
2022-09-29T21:43:51.274Z,93045.72
2022-09-29T21:46:20.323Z,93050.84
2022-09-29T21:48:51.392Z,93053.53
2022-09-29T21:51:21.994Z,93058.94
2022-09-29T21:53:50.013Z,93064.34
2022-09-29T21:56:19.532Z,93060.84
2022-09-29T21:58:49.360Z,93061.63
2022-09-29T22:01:17.051Z,93057.31
2022-09-29T22:03:45.661Z,93053.84
2022-09-29T22:06:13.975Z,93060.03
2022-09-29T22:08:41.725Z,93060.84
2022-09-29T22:11:09.300Z,93063.56
2022-09-29T22:13:37.741Z,93053.84
2022-09-29T22:16:08.084Z,93059.22
2022-09-29T22:18:41.549Z,93070.03
2022-09-29T22:21:10.531Z,93068.94
2022-09-29T22:23:38.045Z,93077.06
2022-09-29T22:26:05.657Z,93080.84
2022-09-29T22:28:33.256Z,93080.03
2022-09-29T22:31:07.343Z,93075.44
2022-09-29T22:33:38.341Z,93074.63
2022-09-29T22:36:05.999Z,93070.03
2022-09-29T22:38:34.588Z,93067.34
2022-09-29T22:41:02.125Z,93063.81
2022-09-29T22:43:29.690Z,93063.03
2022-09-29T22:45:57.304Z,93070.84
2022-09-29T22:48:24.896Z,93066.50
2022-09-29T22:50:54.961Z,93063.03
2022-09-29T22:53:22.504Z,93063.81
2022-09-29T22:55:50.025Z,93068.44
2022-09-29T22:58:17.556Z,93067.59
2022-09-29T23:00:45.060Z,93068.44
2022-09-29T23:03:12.637Z,93064.13
2022-09-29T23:05:41.364Z,93061.41
2022-09-29T23:08:11.933Z,93062.19
2022-09-29T23:10:39.484Z,93057.63
2022-09-29T23:13:07.036Z,93066.00
2022-09-29T23:15:36.280Z,93066.81
2022-09-29T23:18:03.906Z,93066.00
2022-09-29T23:20:31.438Z,93069.50
2022-09-29T23:22:59.201Z,93061.41
2022-09-29T23:25:28.108Z,93064.13
2022-09-29T23:27:55.755Z,93060.59
2022-09-29T23:30:24.069Z,93055.19
2022-09-29T23:32:51.578Z,93057.09
2022-09-29T23:35:19.193Z,93063.59
2022-09-29T23:38:04.657Z,93068.69
2022-09-29T23:40:33.561Z,93062.50
2022-09-29T23:43:01.086Z,93066.00
2022-09-29T23:45:28.610Z,93069.78
2022-09-29T23:47:56.124Z,93078.72
2022-09-29T23:50:23.654Z,93074.41
2022-09-29T23:52:51.345Z,93069.00
2022-09-29T23:55:18.929Z,93072.47
2022-09-29T23:57:47.823Z,93079.78
